createdAt,value
2018-02-12T00:01:03.124Z,3.43
2018-02-12T00:03:31.375Z,3.50
2018-02-12T00:05:58.842Z,3.57
2018-02-12T00:08:27.093Z,3.13
2018-02-12T00:10:54.568Z,3.47
2018-02-12T00:13:22.077Z,3.30
2018-02-12T00:15:49.568Z,3.90
2018-02-12T00:18:17.079Z,3.63
2018-02-12T00:20:44.569Z,3.50
2018-02-12T00:23:12.070Z,3.37
2018-02-12T00:25:39.534Z,3.73
2018-02-12T00:28:07.810Z,6.03
2018-02-12T00:30:36.050Z,5.47
2018-02-12T00:33:03.557Z,4.03
2018-02-12T00:35:31.029Z,5.93
2018-02-12T00:37:58.519Z,7.77
2018-02-12T00:40:25.990Z,7.13
2018-02-12T00:42:53.592Z,7.23
2018-02-12T00:45:21.063Z,7.77
2018-02-12T00:47:48.560Z,7.30
2018-02-12T00:50:16.059Z,7.87
2018-02-12T00:52:43.537Z,7.60
2018-02-12T00:55:11.028Z,8.30
2018-02-12T00:57:38.500Z,7.67
2018-02-12T01:00:05.985Z,8.63
2018-02-12T01:02:34.284Z,8.33
2018-02-12T01:05:01.780Z,9.03
2018-02-12T01:07:29.247Z,8.97
2018-02-12T01:09:56.747Z,8.27
2018-02-12T01:12:24.211Z,6.80
2018-02-12T01:14:51.744Z,11.40
2018-02-12T01:17:19.982Z,9.80
2018-02-12T01:19:47.469Z,9.27
2018-02-12T01:22:15.743Z,9.80
2018-02-12T01:24:43.935Z,9.53
2018-02-12T01:27:12.214Z,7.27
2018-02-12T01:29:39.727Z,8.17
2018-02-12T01:32:13.473Z,7.77
2018-02-12T01:34:41.106Z,7.30
2018-02-12T01:37:08.598Z,7.87
2018-02-12T01:39:36.078Z,6.93
2018-02-12T01:42:03.581Z,6.40
2018-02-12T01:44:31.048Z,6.63
2018-02-12T01:46:58.531Z,7.23
2018-02-12T01:49:26.106Z,7.47
2018-02-12T01:51:53.608Z,6.63
2018-02-12T01:54:21.079Z,6.90
2018-02-12T01:56:49.436Z,7.00
2018-02-12T01:59:16.907Z,7.90
2018-02-12T02:01:44.406Z,7.77
2018-02-12T02:04:11.865Z,9.73
2018-02-12T02:06:39.427Z,9.83
2018-02-12T02:09:06.888Z,9.20
2018-02-12T02:11:34.380Z,8.13
2018-02-12T02:14:01.861Z,7.90
2018-02-12T02:16:29.342Z,7.87
2018-02-12T02:18:56.823Z,8.07
2018-02-12T02:21:24.340Z,6.60
2018-02-12T02:23:52.593Z,6.70
2018-02-12T02:26:20.087Z,5.07
2018-02-12T02:28:48.313Z,6.17
2018-02-12T02:31:15.928Z,5.60
2018-02-12T02:33:43.393Z,8.50
2018-02-12T02:36:10.880Z,8.53
2018-02-12T02:38:38.399Z,7.27
2018-02-12T02:41:05.927Z,6.90
2018-02-12T02:43:34.149Z,7.77
2018-02-12T02:46:01.660Z,9.20
2018-02-12T02:48:29.141Z,6.30
2018-02-12T02:50:57.392Z,5.10
2018-02-12T02:53:24.871Z,5.53
2018-02-12T02:55:53.353Z,3.80
2018-02-12T02:58:21.588Z,3.20
2018-02-12T03:00:49.051Z,3.77
2018-02-12T03:03:17.298Z,4.60
2018-02-12T03:05:44.782Z,4.90
2018-02-12T03:08:12.263Z,4.13
2018-02-12T03:10:39.735Z,4.67
2018-02-12T03:13:08.041Z,5.90
2018-02-12T03:15:35.518Z,10.10
2018-02-12T03:18:03.028Z,7.23
2018-02-12T03:20:31.260Z,7.50
2018-02-12T03:22:58.764Z,5.03
2018-02-12T03:25:26.987Z,4.80
2018-02-12T03:27:54.483Z,4.40
2018-02-12T03:30:21.953Z,3.77
2018-02-12T03:32:50.481Z,4.13
2018-02-12T03:35:17.947Z,3.80
2018-02-12T03:37:45.428Z,6.80
2018-02-12T03:40:12.947Z,7.90
2018-02-12T03:42:40.419Z,8.27
2018-02-12T03:45:07.917Z,7.70
2018-02-12T03:47:36.166Z,8.53
2018-02-12T03:50:03.622Z,5.90
2018-02-12T03:52:31.140Z,8.53
2018-02-12T03:54:58.596Z,11.00
2018-02-12T03:57:26.111Z,8.27
2018-02-12T03:59:53.578Z,5.13
2018-02-12T04:02:21.798Z,7.07
2018-02-12T04:04:49.295Z,8.07
2018-02-12T04:07:16.780Z,8.57
2018-02-12T04:09:45.054Z,8.57
2018-02-12T04:12:13.289Z,9.90
2018-02-12T04:14:40.802Z,7.13
2018-02-12T04:17:08.278Z,7.30
2018-02-12T04:19:35.781Z,7.60
2018-02-12T04:22:03.257Z,9.57
2018-02-12T04:24:31.514Z,10.87
2018-02-12T04:26:58.974Z,9.90
2018-02-12T04:29:26.462Z,9.93
2018-02-12T04:31:53.938Z,11.27
2018-02-12T04:34:21.488Z,12.30
2018-02-12T04:36:48.963Z,11.43
2018-02-12T04:39:16.430Z,9.60
2018-02-12T04:41:43.923Z,8.43
2018-02-12T04:44:11.394Z,8.10
2018-02-12T04:46:39.670Z,7.20
2018-02-12T04:49:07.914Z,6.83
2018-02-12T04:51:35.405Z,6.93
2018-02-12T04:54:03.635Z,7.23
2018-02-12T04:56:31.908Z,7.80
2018-02-12T04:58:59.373Z,6.00
2018-02-12T05:01:26.875Z,7.33
2018-02-12T05:03:55.120Z,7.67
2018-02-12T05:06:22.614Z,6.97
2018-02-12T05:08:50.090Z,7.20
2018-02-12T05:11:17.584Z,5.00
2018-02-12T05:13:45.048Z,5.07
2018-02-12T05:16:12.553Z,5.37
2018-02-12T05:18:40.011Z,6.07
2018-02-12T05:21:07.513Z,7.43
2018-02-12T05:23:34.994Z,6.63
2018-02-12T05:26:02.493Z,8.27
2018-02-12T05:28:29.954Z,6.53
2018-02-12T05:30:57.455Z,6.30
2018-02-12T05:33:24.919Z,5.30
2018-02-12T05:35:52.532Z,4.87
2018-02-12T05:38:19.997Z,5.30
2018-02-12T05:40:47.473Z,5.10
2018-02-12T05:43:14.977Z,5.97
2018-02-12T05:45:43.213Z,5.97
2018-02-12T05:48:10.717Z,4.30
2018-02-12T05:50:38.961Z,4.23
2018-02-12T05:53:06.446Z,5.37
2018-02-12T05:55:34.673Z,5.07
2018-02-12T05:58:02.199Z,5.03
2018-02-12T06:00:29.662Z,3.40
2018-02-12T06:02:57.155Z,4.77
2018-02-12T06:05:25.394Z,5.70
2018-02-12T06:07:52.881Z,4.77
2018-02-12T06:10:20.367Z,4.27
2018-02-12T06:12:47.885Z,4.23
2018-02-12T06:15:15.373Z,4.70
2018-02-12T06:17:42.870Z,4.37
2018-02-12T06:20:10.344Z,3.73
2018-02-12T06:22:37.868Z,5.60
2018-02-12T06:25:06.117Z,6.10
2018-02-12T06:27:33.578Z,10.70
2018-02-12T06:30:01.083Z,10.87
2018-02-12T06:32:28.566Z,9.60
2018-02-12T06:34:56.069Z,10.07
2018-02-12T06:37:24.316Z,8.00
2018-02-12T06:39:51.811Z,7.00
2018-02-12T06:42:20.059Z,4.30
2018-02-12T06:44:47.560Z,5.60
2018-02-12T06:47:15.020Z,5.00
2018-02-12T06:49:42.513Z,4.40
2018-02-12T06:52:09.970Z,4.40
2018-02-12T06:54:37.478Z,3.90
2018-02-12T06:57:05.707Z,5.13
2018-02-12T06:59:33.245Z,7.47
2018-02-12T07:02:00.722Z,6.67
2018-02-12T07:04:28.219Z,5.53
2018-02-12T07:06:56.461Z,7.70
2018-02-12T07:09:23.979Z,5.93
2018-02-12T07:11:51.467Z,6.20
2018-02-12T07:14:19.093Z,6.80
2018-02-12T07:16:46.578Z,7.47
2018-02-12T07:19:14.059Z,7.30
2018-02-12T07:21:41.557Z,7.43
2018-02-12T07:24:09.801Z,8.00
2018-02-12T07:26:37.342Z,12.17
2018-02-12T07:29:04.820Z,12.30
2018-02-12T07:31:32.296Z,11.70
2018-02-12T07:34:00.560Z,8.70
2018-02-12T07:36:28.033Z,9.53
2018-02-12T07:38:56.295Z,10.70
2018-02-12T07:41:23.755Z,9.00
2018-02-12T07:43:52.125Z,9.10
2018-02-12T07:46:19.593Z,10.37
2018-02-12T07:48:47.854Z,9.23
2018-02-12T07:51:15.359Z,8.80
2018-02-12T07:53:42.833Z,7.50
2018-02-12T07:56:10.321Z,5.53
2018-02-12T07:58:40.244Z,5.50
2018-02-12T08:01:07.720Z,4.67
2018-02-12T08:03:35.252Z,3.93
2018-02-12T08:06:02.725Z,4.70
2018-02-12T08:08:30.210Z,4.10
2018-02-12T08:10:57.786Z,4.90
2018-02-12T08:13:25.300Z,4.43
2018-02-12T08:15:52.768Z,4.70
2018-02-12T08:18:21.066Z,4.90
2018-02-12T08:20:48.524Z,4.67
2018-02-12T08:23:16.025Z,5.33
2018-02-12T08:25:43.483Z,6.37
2018-02-12T08:28:11.019Z,5.20
2018-02-12T08:30:38.482Z,4.77
2018-02-12T08:33:05.994Z,7.23
2018-02-12T08:35:34.251Z,7.03
2018-02-12T08:38:01.711Z,6.00
2018-02-12T08:40:29.216Z,6.20
2018-02-12T08:42:56.700Z,5.03
2018-02-12T08:45:24.183Z,5.50
2018-02-12T08:47:51.638Z,4.67
2018-02-12T08:50:19.157Z,5.67
2018-02-12T08:52:46.642Z,6.00
2018-02-12T08:55:14.958Z,7.70
2018-02-12T08:57:42.395Z,7.23
2018-02-12T09:00:09.901Z,9.07
2018-02-12T09:02:37.368Z,8.37
2018-02-12T09:05:04.868Z,14.87
2018-02-12T09:07:32.341Z,9.13
2018-02-12T09:09:59.993Z,12.60
2018-02-12T09:12:28.241Z,8.93
2018-02-12T09:14:55.742Z,11.90
2018-02-12T09:17:23.220Z,9.73
2018-02-12T09:19:50.718Z,11.23
2018-02-12T09:22:18.243Z,11.73
2018-02-12T09:24:45.728Z,11.90
2018-02-12T09:27:13.239Z,9.53
2018-02-12T09:29:40.785Z,6.93
2018-02-12T09:32:09.043Z,6.60
2018-02-12T09:34:36.520Z,8.53
2018-02-12T09:37:04.792Z,7.17
2018-02-12T09:39:33.045Z,11.80
2018-02-12T09:42:00.522Z,9.53
2018-02-12T09:44:28.770Z,7.37
2018-02-12T09:46:56.306Z,6.80
2018-02-12T09:49:23.782Z,6.60
2018-02-12T09:51:51.280Z,6.83
2018-02-12T09:54:19.585Z,5.93
2018-02-12T09:56:47.055Z,6.53
2018-02-12T09:59:14.543Z,7.47
2018-02-12T10:01:42.031Z,4.60
2018-02-12T10:04:10.323Z,5.67
2018-02-12T10:06:37.776Z,4.40
2018-02-12T10:09:05.398Z,5.83
2018-02-12T10:11:32.863Z,5.27
2018-02-12T10:14:00.401Z,4.60
2018-02-12T10:16:27.938Z,4.73
2018-02-12T10:18:56.536Z,4.60
2018-02-12T10:21:24.031Z,9.53
2018-02-12T10:23:51.564Z,5.00
2018-02-12T10:26:19.536Z,4.43
2018-02-12T10:28:51.820Z,4.20
2018-02-12T10:31:19.339Z,4.30
2018-02-12T10:33:47.756Z,5.50
2018-02-12T10:36:15.282Z,7.57
2018-02-12T10:38:42.766Z,5.30
2018-02-12T10:41:10.385Z,3.60
2018-02-12T10:43:37.928Z,4.87
2018-02-12T10:46:05.395Z,5.47
2018-02-12T10:48:32.910Z,4.93
2018-02-12T10:51:00.370Z,3.87
2018-02-12T10:53:28.626Z,4.13
2018-02-12T10:55:56.570Z,5.73
2018-02-12T10:58:24.095Z,3.60
2018-02-12T11:00:51.609Z,3.40
2018-02-12T11:03:20.112Z,3.30
2018-02-12T11:05:47.669Z,3.00
2018-02-12T11:08:18.216Z,3.13
2018-02-12T11:10:45.867Z,3.07
2018-02-12T11:13:15.055Z,2.93
2018-02-12T11:15:42.585Z,3.47
2018-02-12T11:18:10.095Z,3.80
2018-02-12T11:20:37.691Z,3.80
2018-02-12T11:23:05.995Z,3.40
2018-02-12T11:25:33.502Z,3.10
2018-02-12T11:28:00.972Z,3.83
2018-02-12T11:30:28.466Z,13.50
2018-02-12T11:32:55.958Z,6.40
2018-02-12T11:35:24.224Z,3.60
2018-02-12T11:37:51.711Z,3.70
2018-02-12T11:40:19.323Z,3.13
2018-02-12T11:42:46.781Z,4.27
2018-02-12T11:45:14.743Z,6.53
2018-02-12T11:47:42.264Z,5.67
2018-02-12T11:50:09.741Z,3.90
2018-02-12T11:52:37.921Z,2.50
2018-02-12T11:55:05.379Z,2.70
2018-02-12T11:57:33.594Z,3.13
2018-02-12T12:00:03.200Z,3.10
2018-02-12T12:02:31.439Z,2.57
2018-02-12T12:04:58.942Z,2.90
2018-02-12T12:07:27.172Z,3.50
2018-02-12T12:09:54.674Z,3.90
2018-02-12T12:12:22.899Z,3.57
2018-02-12T12:14:50.394Z,42.70
2018-02-12T12:17:17.857Z,6.53
2018-02-12T12:19:46.129Z,4.80
2018-02-12T12:22:13.582Z,3.73
2018-02-12T12:24:41.087Z,3.17
2018-02-12T12:27:08.568Z,3.50
2018-02-12T12:29:36.114Z,5.83
2018-02-12T12:32:03.624Z,4.40
2018-02-12T12:34:31.080Z,4.60
2018-02-12T12:36:59.391Z,4.73
2018-02-12T12:39:26.936Z,3.63
2018-02-12T12:41:54.469Z,44.07
2018-02-12T12:44:22.748Z,24.60
2018-02-12T12:46:50.364Z,8.17
2018-02-12T12:49:17.828Z,6.40
2018-02-12T12:51:45.345Z,5.13
2018-02-12T12:54:13.558Z,4.70
2018-02-12T12:56:41.173Z,3.40
2018-02-12T12:59:09.414Z,5.27
2018-02-12T13:01:36.929Z,7.53
2018-02-12T13:04:04.419Z,5.50
2018-02-12T13:06:31.949Z,6.07
2018-02-12T13:09:00.221Z,4.70
2018-02-12T13:11:28.510Z,5.13
2018-02-12T13:13:56.005Z,3.90
2018-02-12T13:16:23.643Z,3.20
2018-02-12T13:18:51.192Z,2.90
2018-02-12T13:21:18.632Z,2.80
2018-02-12T13:23:46.156Z,3.97
2018-02-12T13:26:13.762Z,3.43
2018-02-12T13:28:41.285Z,3.37
2018-02-12T13:31:09.521Z,4.83
2018-02-12T13:33:37.036Z,4.30
2018-02-12T13:36:04.541Z,4.17
2018-02-12T13:38:32.014Z,3.80
2018-02-12T13:40:59.488Z,3.87
2018-02-12T13:43:27.766Z,4.13
2018-02-12T13:45:55.995Z,3.90
2018-02-12T13:48:23.514Z,4.60
2018-02-12T13:50:51.297Z,4.90
2018-02-12T13:53:20.243Z,6.57
2018-02-12T13:55:47.855Z,7.90
2018-02-12T13:58:15.413Z,8.67
2018-02-12T14:00:42.914Z,4.20
2018-02-12T14:03:10.409Z,2.80
2018-02-12T14:05:37.870Z,4.03
2018-02-12T14:08:07.889Z,9.13
2018-02-12T14:10:35.665Z,3.47
2018-02-12T14:13:03.204Z,5.30
2018-02-12T14:15:30.779Z,3.90
2018-02-12T14:17:58.302Z,3.47
2018-02-12T14:20:25.818Z,69.77
2018-02-12T14:22:53.588Z,2.67
2018-02-12T14:25:21.077Z,3.40
2018-02-12T14:27:48.769Z,5.33
2018-02-12T14:30:16.299Z,3.90
2018-02-12T14:32:43.770Z,2.57
2018-02-12T14:35:12.043Z,3.13
2018-02-12T14:37:40.357Z,7.80
2018-02-12T14:40:07.853Z,4.43
2018-02-12T14:42:35.357Z,4.87
2018-02-12T14:45:02.854Z,3.47
2018-02-12T14:47:30.489Z,2.80
2018-02-12T14:49:58.007Z,2.20
2018-02-12T14:52:25.493Z,3.63
2018-02-12T14:54:53.030Z,4.23
2018-02-12T14:57:20.618Z,5.97
2018-02-12T14:59:48.162Z,4.17
2018-02-12T15:02:15.693Z,3.47
2018-02-12T15:04:43.219Z,2.57
2018-02-12T15:07:10.722Z,5.03
2018-02-12T15:09:38.300Z,3.30
2018-02-12T15:12:05.871Z,2.80
2018-02-12T15:14:33.383Z,3.57
2018-02-12T15:17:00.891Z,2.73
2018-02-12T15:19:28.397Z,3.10
2018-02-12T15:21:55.916Z,5.30
2018-02-12T15:24:23.437Z,2.80
2018-02-12T15:26:50.977Z,2.80
2018-02-12T15:29:18.508Z,3.70
2018-02-12T15:31:45.995Z,3.10
2018-02-12T15:34:13.489Z,2.80
2018-02-12T15:36:41.008Z,3.90
2018-02-12T15:39:08.493Z,4.40
2018-02-12T15:41:36.065Z,3.63
2018-02-12T15:44:03.572Z,4.07
2018-02-12T15:46:31.039Z,4.80
2018-02-12T15:48:58.542Z,5.17
2018-02-12T15:51:26.017Z,6.20
2018-02-12T15:53:53.525Z,6.43
2018-02-12T15:56:20.990Z,5.47
2018-02-12T15:58:49.289Z,5.57
2018-02-12T16:01:16.764Z,3.70
2018-02-12T16:03:44.254Z,5.73
2018-02-12T16:06:11.733Z,5.00
2018-02-12T16:08:39.249Z,4.30
2018-02-12T16:11:06.713Z,3.97
2018-02-12T16:13:34.217Z,3.60
2018-02-12T16:16:02.461Z,5.60
2018-02-12T16:18:29.958Z,5.47
2018-02-12T16:20:58.188Z,6.40
2018-02-12T16:23:25.714Z,7.60
2018-02-12T16:25:53.184Z,6.90
2018-02-12T16:28:20.670Z,7.97
2018-02-12T16:30:48.140Z,6.17
2018-02-12T16:33:15.662Z,5.43
2018-02-12T16:35:43.127Z,3.93
2018-02-12T16:38:10.650Z,4.83
2018-02-12T16:40:38.116Z,3.77
2018-02-12T16:43:05.606Z,6.20
2018-02-12T16:45:33.124Z,4.63
2018-02-12T16:48:00.637Z,4.27
2018-02-12T16:50:28.121Z,3.67
2018-02-12T16:52:56.392Z,6.07
2018-02-12T16:55:24.636Z,4.93
2018-02-12T16:57:52.144Z,4.80
2018-02-12T17:00:19.684Z,5.33
2018-02-12T17:02:48.088Z,7.57
2018-02-12T17:05:15.552Z,5.73
2018-02-12T17:07:43.044Z,6.57
2018-02-12T17:10:10.626Z,6.53
2018-02-12T17:12:38.108Z,5.70
2018-02-12T17:15:07.318Z,7.37
2018-02-12T17:17:34.776Z,5.70
2018-02-12T17:20:02.270Z,6.33
2018-02-12T17:22:29.726Z,4.67
2018-02-12T17:24:57.235Z,5.60
2018-02-12T17:27:25.493Z,6.67
2018-02-12T17:29:52.995Z,5.60
2018-02-12T17:32:20.466Z,4.50
2018-02-12T17:34:48.082Z,8.67
2018-02-12T17:37:16.320Z,7.10
2018-02-12T17:39:43.775Z,5.73
2018-02-12T17:42:11.275Z,6.70
2018-02-12T17:44:39.508Z,5.73
2018-02-12T17:47:06.999Z,7.70
2018-02-12T17:49:35.248Z,6.17
2018-02-12T17:52:02.764Z,5.60
2018-02-12T17:54:30.236Z,7.17
2018-02-12T17:56:57.742Z,6.43
2018-02-12T17:59:25.224Z,8.70
2018-02-12T18:01:53.483Z,7.50
2018-02-12T18:04:21.724Z,7.17
2018-02-12T18:06:49.310Z,7.00
2018-02-12T18:09:16.789Z,7.03
2018-02-12T18:11:45.085Z,5.87
2018-02-12T18:14:12.601Z,7.33
2018-02-12T18:16:40.112Z,8.80
2018-02-12T18:19:07.579Z,13.80
2018-02-12T18:21:35.101Z,11.20
2018-02-12T18:24:03.327Z,8.20
2018-02-12T18:26:30.838Z,8.33
2018-02-12T18:28:58.326Z,11.17
2018-02-12T18:31:25.838Z,17.63
2018-02-12T18:33:54.091Z,11.13
2018-02-12T18:36:21.589Z,15.13
2018-02-12T18:38:49.082Z,15.53
2018-02-12T18:41:16.922Z,13.13
2018-02-12T18:43:44.778Z,14.73
2018-02-12T18:46:13.093Z,17.67
2018-02-12T18:48:40.610Z,34.50
2018-02-12T18:51:08.893Z,29.30
2018-02-12T18:53:36.408Z,25.17
2018-02-12T18:56:04.208Z,26.47
2018-02-12T18:58:31.692Z,17.27
2018-02-12T19:00:59.463Z,16.40
2018-02-12T19:03:26.997Z,21.90
2018-02-12T19:05:54.488Z,19.53
2018-02-12T19:08:21.986Z,20.57
2018-02-12T19:10:50.237Z,25.90
2018-02-12T19:13:17.753Z,22.97
2018-02-12T19:15:45.253Z,16.50
2018-02-12T19:18:12.759Z,12.67
2018-02-12T19:20:40.249Z,14.60
2018-02-12T19:23:07.847Z,14.50
2018-02-12T19:25:35.370Z,14.27
2018-02-12T19:28:02.859Z,17.20
2018-02-12T19:30:30.384Z,15.20
2018-02-12T19:32:57.862Z,15.13
2018-02-12T19:35:25.390Z,12.43
2018-02-12T19:37:52.868Z,14.00
2018-02-12T19:40:20.405Z,18.07
2018-02-12T19:42:47.896Z,10.47
2018-02-12T19:45:16.604Z,17.07
2018-02-12T19:47:44.891Z,15.90
2018-02-12T19:50:13.182Z,9.73
2018-02-12T19:52:41.433Z,13.40
2018-02-12T19:55:10.646Z,11.20
2018-02-12T19:57:38.922Z,14.73
2018-02-12T20:00:07.231Z,14.03
2018-02-12T20:02:34.751Z,14.53
2018-02-12T20:05:04.300Z,11.43
2018-02-12T20:07:31.789Z,10.77
2018-02-12T20:09:59.318Z,10.93
2018-02-12T20:12:26.795Z,10.87
2018-02-12T20:14:54.298Z,11.70
2018-02-12T20:17:22.585Z,32.30
2018-02-12T20:19:50.056Z,16.87
2018-02-12T20:22:17.556Z,15.63
2018-02-12T20:24:45.036Z,38.00
2018-02-12T20:27:13.323Z,27.47
2018-02-12T20:29:41.566Z,26.23
2018-02-12T20:32:09.075Z,34.80
2018-02-12T20:34:36.542Z,25.63
2018-02-12T20:37:04.056Z,33.70
2018-02-12T20:39:31.531Z,32.87
2018-02-12T20:41:59.806Z,30.63
2018-02-12T20:44:28.043Z,28.23
2018-02-12T20:46:55.563Z,21.13
2018-02-12T20:49:23.059Z,22.27
2018-02-12T20:51:51.338Z,19.50
2018-02-12T20:54:18.819Z,21.87
2018-02-12T20:56:47.130Z,20.57
2018-02-12T20:59:14.608Z,20.57
2018-02-12T21:01:42.120Z,18.20
2018-02-12T21:04:10.424Z,21.40
2018-02-12T21:06:37.944Z,20.40
2018-02-12T21:09:05.440Z,20.17
2018-02-12T21:11:32.936Z,17.90
2018-02-12T21:14:00.457Z,16.83
2018-02-12T21:16:27.968Z,17.17
2018-02-12T21:18:55.576Z,16.93
2018-02-12T21:21:23.056Z,15.07
2018-02-12T21:23:50.554Z,13.93
2018-02-12T21:26:18.808Z,15.70
2018-02-12T21:28:46.308Z,13.87
2018-02-12T21:31:13.822Z,16.57
2018-02-12T21:33:41.315Z,15.47
2018-02-12T21:36:09.575Z,16.63
2018-02-12T21:38:37.089Z,16.43
2018-02-12T21:41:04.561Z,15.13
2018-02-12T21:43:32.056Z,12.97
2018-02-12T21:46:00.380Z,23.03
2018-02-12T21:48:27.883Z,15.10
2018-02-12T21:50:55.360Z,28.57
2018-02-12T21:53:23.641Z,21.37
2018-02-12T21:55:51.909Z,22.00
2018-02-12T21:58:20.174Z,21.73
2018-02-12T22:00:47.680Z,22.47
2018-02-12T22:03:15.224Z,28.60
2018-02-12T22:05:43.463Z,24.07
2018-02-12T22:08:10.935Z,19.77
2018-02-12T22:10:39.202Z,18.53
2018-02-12T22:13:07.463Z,19.03
2018-02-12T22:15:34.964Z,13.80
2018-02-12T22:18:02.440Z,18.20
2018-02-12T22:20:29.963Z,15.63
2018-02-12T22:22:58.204Z,18.30
2018-02-12T22:25:25.718Z,22.53
2018-02-12T22:27:53.186Z,20.30
2018-02-12T22:30:20.704Z,21.17
2018-02-12T22:32:48.956Z,21.33
2018-02-12T22:35:16.466Z,18.50
2018-02-12T22:37:43.945Z,22.37
2018-02-12T22:40:11.435Z,18.20
2018-02-12T22:42:38.961Z,18.43
2018-02-12T22:45:06.504Z,20.70
2018-02-12T22:47:34.013Z,20.30
2018-02-12T22:50:01.520Z,19.10
2018-02-12T22:52:28.992Z,18.13
2018-02-12T22:54:56.540Z,20.23
2018-02-12T22:57:24.028Z,19.07
2018-02-12T22:59:51.494Z,20.10
2018-02-12T23:02:19.032Z,22.40
2018-02-12T23:04:46.588Z,20.43
2018-02-12T23:07:14.069Z,22.27
2018-02-12T23:09:41.570Z,21.97
2018-02-12T23:12:09.088Z,24.33
2018-02-12T23:14:36.568Z,17.67
2018-02-12T23:17:20.662Z,19.77
2018-02-12T23:19:48.127Z,22.57
2018-02-12T23:22:15.631Z,22.10
2018-02-12T23:24:43.877Z,21.00
2018-02-12T23:27:11.384Z,18.47
2018-02-12T23:29:38.865Z,17.13
2018-02-12T23:32:06.385Z,16.80
2018-02-12T23:34:34.625Z,17.17
2018-02-12T23:37:02.119Z,14.13
2018-02-12T23:39:30.365Z,14.13
2018-02-12T23:41:58.339Z,18.63
2018-02-12T23:44:25.862Z,12.63
2018-02-12T23:46:53.388Z,18.53
2018-02-12T23:49:21.672Z,20.63
2018-02-12T23:51:49.175Z,14.77
2018-02-12T23:54:24.610Z,17.07
2018-02-12T23:56:52.334Z,18.70
2018-02-12T23:59:20.580Z,19.73
